Detall de PIREP

Printer-friendly versionPDF version

[2010/10/08 21:15:00]
Flight IATA:CT2214
Pilot Number:026
Company ICAO:CAT
Aircraft Type:DC85/A
PAX:136
Departing Airport: LFMP
Destination Airport: LFOT
Alternate Airport:LFPO
Online: VATSIM
Route:ORBIL/N0280F180 G36 GAI/N0300F300 UT186 PERIG UY156 FOUCO UT181 POI/N0400F180 B19 AMB
Flight Level:FL260
No Slew and time accel
No pause
Crash detect
Detect pilot in Cockpit between each 30 and 45 minutes
21:15 Zero fuel Weight: 191027 Lbs, Fuel Weight: 24014 Lbs
21:15 VATSIM:LFMP 082100Z AUTO 11011KT 9999NDV OVC007 19/17 Q1015
21:15 VATSIM:LFOT 082100Z 09005KT CAVOK 17/15 Q1012 NOSIG
21:16 VOICE CATALONIAN / LFMP HUB ROUTE
21:23 Parking Brakes off
21:30 Take-off
21:30 Take off Weight: 214166 Lbs
21:30 Wind: 086º @ 011 Knots Heading: 325º
21:30 POS N42º 45´ 07´´ E002º 51´ 48´´
21:30 Gear Up: 179 Knots
21:30 Flaps:2 at 179 Knots
21:30 Flaps:1 at 167 Knots
21:31 Flaps:0 at 207 Knots
21:45 Wind:124º@051 Knots Heading: 334º Ground Speed: 437 Knots Altitude 21751 ft
21:48 TOC
21:48 Fuel Weight: 17517 Lb
21:58 TOD
21:58 Fuel Weight: 14844 Lb
22:00 Wind:128º@030 Knots Heading: 355º Ground Speed: 484 Knots Altitude 24166 ft
22:15 Wind:100º@011 Knots Heading: 034º Ground Speed: 261 Knots Altitude 5702 ft
22:19 Flaps:1 at 209 Knots
22:20 Gear Down: 216 Knots
22:21 Flaps:2 at 197 Knots
22:21 Flaps:3 at 183 Knots
22:21 Flaps:4 at 177 Knots
22:22 Flaps:5 at 158 Knots
22:22 TouchDown:Rate -385 ft/min Speed: 137 Knots
22:22 VATSIM:LFOT 082200Z 10006KT CAVOK 16/15 Q1012 NOSIG
22:22 Land
22:22 Wind:103º@006 Knots
22:22 Heading: 195º
22:22 Flight Duration: 00:52
22:22 Landing Weight: 203163 Lbs
22:22 POS N47º 25´ 31´´ E000º 43´ 29´´
22:30 Parking brakes on
22:30 Block to Block Duration: 01:08
22:30 Final Fuel: 11364 Lbls
22:30 Spent Fuel: 12649 Lbls
22:30 Flight Length: 338 NM
22:30 TOD Land Length: 135 NM

Exportar CSV

Powered by Drupal - Modified by Danger4k